createdAt,value
2023-01-31T00:01:41.116Z,81.80
2023-01-31T00:04:12.455Z,81.70
2023-01-31T00:06:50.841Z,81.60
2023-01-31T00:09:18.807Z,81.00
2023-01-31T00:11:45.807Z,81.60
2023-01-31T00:14:20.170Z,81.70
2023-01-31T00:16:47.161Z,81.30
2023-01-31T00:19:14.001Z,81.70
2023-01-31T00:21:43.694Z,81.60
2023-01-31T00:24:13.780Z,82.10
2023-01-31T00:26:40.854Z,81.30
2023-01-31T00:29:07.845Z,81.70
2023-01-31T00:31:36.049Z,81.60
2023-01-31T00:34:03.116Z,81.50
2023-01-31T00:36:35.157Z,81.60
2023-01-31T00:39:05.650Z,80.60
2023-01-31T00:41:34.584Z,81.20
2023-01-31T00:44:02.188Z,81.30
2023-01-31T00:46:29.409Z,81.40
2023-01-31T00:48:57.072Z,81.60
2023-01-31T00:51:26.854Z,81.40
2023-01-31T00:53:54.973Z,81.30
2023-01-31T00:56:24.214Z,81.30
2023-01-31T00:58:51.909Z,81.30
2023-01-31T01:01:28.612Z,81.30
2023-01-31T01:03:57.463Z,80.00
2023-01-31T01:06:24.780Z,81.20
2023-01-31T01:08:52.888Z,81.40
2023-01-31T01:11:30.059Z,81.30
2023-01-31T01:13:59.175Z,80.60
2023-01-31T01:16:32.868Z,81.30
2023-01-31T01:19:03.346Z,81.00
2023-01-31T01:21:32.345Z,81.10
2023-01-31T01:24:02.592Z,81.20
2023-01-31T01:26:33.218Z,81.10
2023-01-31T01:29:02.275Z,81.00
2023-01-31T01:31:30.524Z,81.20
2023-01-31T01:34:06.986Z,81.20
2023-01-31T01:36:37.061Z,80.60
2023-01-31T01:39:08.798Z,81.00
2023-01-31T01:41:37.420Z,81.10
2023-01-31T01:45:01.252Z,81.10
2023-01-31T01:48:00.753Z,81.20
2023-01-31T01:50:42.516Z,80.90
2023-01-31T01:53:20.611Z,80.60
2023-01-31T01:56:12.518Z,80.90
2023-01-31T01:58:52.417Z,78.60
2023-01-31T02:01:20.811Z,81.10
2023-01-31T02:03:51.310Z,81.40
2023-01-31T02:06:18.655Z,81.30
2023-01-31T02:08:45.931Z,81.40
2023-01-31T02:11:25.853Z,81.50
2023-01-31T02:14:05.106Z,81.40
2023-01-31T02:16:32.327Z,80.10
2023-01-31T02:18:59.979Z,81.40
2023-01-31T02:21:51.803Z,81.30
2023-01-31T02:24:49.662Z,80.40
2023-01-31T02:27:34.558Z,78.30
2023-01-31T02:30:37.593Z,79.00
2023-01-31T02:33:44.631Z,79.00
2023-01-31T02:36:51.712Z,80.40
2023-01-31T02:39:51.491Z,79.40
2023-01-31T02:42:57.496Z,79.60
2023-01-31T02:45:56.984Z,79.70
2023-01-31T02:48:52.081Z,80.30
2023-01-31T02:52:11.057Z,79.30
2023-01-31T02:54:57.309Z,78.80
2023-01-31T02:57:25.020Z,81.40
2023-01-31T02:59:52.084Z,81.50
2023-01-31T03:02:19.539Z,81.50
2023-01-31T03:04:46.877Z,81.50
2023-01-31T03:07:26.859Z,81.50
2023-01-31T03:10:29.477Z,80.10
2023-01-31T03:13:33.594Z,78.70
2023-01-31T03:17:08.876Z,81.00
2023-01-31T03:19:44.396Z,79.10
2023-01-31T03:22:18.485Z,80.90
2023-01-31T03:24:48.786Z,81.10
2023-01-31T03:27:16.838Z,81.30
2023-01-31T03:29:45.144Z,81.40
2023-01-31T03:32:42.482Z,81.20
2023-01-31T03:35:10.002Z,80.60
2023-01-31T03:38:01.228Z,81.40
2023-01-31T03:40:38.602Z,79.30
2023-01-31T03:43:39.241Z,80.90
2023-01-31T03:46:22.699Z,80.10
2023-01-31T03:48:54.800Z,79.70
2023-01-31T03:51:28.130Z,81.20
2023-01-31T03:54:28.289Z,80.90
2023-01-31T03:57:22.645Z,78.10
2023-01-31T03:59:57.605Z,79.40
2023-01-31T04:02:36.881Z,80.80
2023-01-31T04:05:13.440Z,80.60
2023-01-31T04:07:41.236Z,80.80
2023-01-31T04:10:16.577Z,80.90
2023-01-31T04:12:43.898Z,80.20
2023-01-31T04:15:12.545Z,80.80
2023-01-31T04:17:39.402Z,80.70
2023-01-31T04:20:07.744Z,80.80
2023-01-31T04:22:34.543Z,80.90
2023-01-31T04:25:02.043Z,80.90
2023-01-31T04:27:28.988Z,80.90
2023-01-31T04:29:55.814Z,80.90
2023-01-31T04:32:22.722Z,80.80
2023-01-31T04:34:49.582Z,80.90
2023-01-31T04:37:16.656Z,80.90
2023-01-31T04:39:43.432Z,81.00
2023-01-31T04:42:10.565Z,81.00
2023-01-31T04:44:37.545Z,80.80
2023-01-31T04:47:04.464Z,80.90
2023-01-31T04:49:31.735Z,81.00
2023-01-31T04:51:58.645Z,81.00
2023-01-31T04:54:25.466Z,81.00
2023-01-31T04:56:52.244Z,81.00
2023-01-31T04:59:19.096Z,81.00
2023-01-31T05:01:45.929Z,81.50
2023-01-31T05:04:12.771Z,81.00
2023-01-31T05:06:39.849Z,81.40
2023-01-31T05:09:07.808Z,81.10
2023-01-31T05:11:34.832Z,81.10
2023-01-31T05:14:01.899Z,81.10
2023-01-31T05:16:28.773Z,81.10
2023-01-31T05:18:55.608Z,81.20
2023-01-31T05:21:22.520Z,81.30
2023-01-31T05:23:49.361Z,81.20
2023-01-31T05:26:16.281Z,81.10
2023-01-31T05:28:43.131Z,81.10
2023-01-31T05:31:11.831Z,81.10
2023-01-31T05:33:39.182Z,81.20
2023-01-31T05:36:06.870Z,81.20
2023-01-31T05:38:33.718Z,81.10
2023-01-31T05:41:00.554Z,81.20
2023-01-31T05:43:27.380Z,81.20
2023-01-31T05:45:54.201Z,81.10
2023-01-31T05:48:21.645Z,81.20
2023-01-31T05:50:50.900Z,81.70
2023-01-31T05:53:18.910Z,81.00
2023-01-31T05:55:45.905Z,81.10
2023-01-31T05:58:12.801Z,81.20
2023-01-31T06:00:39.662Z,81.30
2023-01-31T06:03:06.560Z,81.20
2023-01-31T06:05:34.078Z,81.30
2023-01-31T06:08:00.904Z,81.30
2023-01-31T06:10:27.768Z,81.10
2023-01-31T06:12:54.650Z,81.10
2023-01-31T06:15:21.907Z,81.20
2023-01-31T06:17:48.851Z,81.20
2023-01-31T06:20:15.911Z,81.00
2023-01-31T06:22:42.750Z,81.10
2023-01-31T06:25:10.189Z,81.00
2023-01-31T06:27:37.216Z,81.10
2023-01-31T06:30:04.449Z,81.20
2023-01-31T06:32:32.543Z,81.00
2023-01-31T06:34:59.718Z,81.20
2023-01-31T06:37:26.570Z,82.30
2023-01-31T06:39:53.666Z,82.20
2023-01-31T06:42:20.566Z,82.10
2023-01-31T06:44:47.442Z,82.20
2023-01-31T06:47:14.745Z,82.80
2023-01-31T06:49:41.705Z,83.00
2023-01-31T06:52:08.550Z,82.60
2023-01-31T06:54:35.416Z,82.00
2023-01-31T06:57:02.244Z,81.40
2023-01-31T06:59:29.144Z,81.10
2023-01-31T07:01:56.185Z,80.70
2023-01-31T07:04:23.313Z,80.70
2023-01-31T07:06:50.284Z,80.70
2023-01-31T07:09:17.134Z,80.60
2023-01-31T07:11:44.158Z,80.70
2023-01-31T07:14:11.064Z,80.80
2023-01-31T07:16:38.875Z,80.70
2023-01-31T07:19:05.804Z,80.90
2023-01-31T07:21:33.439Z,80.90
2023-01-31T07:24:00.313Z,81.10
2023-01-31T07:26:27.419Z,81.30
2023-01-31T07:28:54.255Z,81.40
2023-01-31T07:31:22.154Z,81.40
2023-01-31T07:33:49.043Z,81.50
2023-01-31T07:36:19.840Z,81.90
2023-01-31T07:38:46.675Z,82.00
2023-01-31T07:41:13.530Z,80.10
2023-01-31T07:43:40.340Z,81.90
2023-01-31T07:46:10.408Z,81.90
2023-01-31T07:48:38.468Z,81.60
2023-01-31T07:51:06.625Z,81.50
2023-01-31T07:53:41.996Z,81.60
2023-01-31T07:56:19.551Z,81.50
2023-01-31T07:58:49.179Z,80.70
2023-01-31T08:01:41.638Z,81.30
2023-01-31T08:04:21.086Z,80.70
2023-01-31T08:06:53.587Z,80.60
2023-01-31T08:09:20.863Z,80.60
2023-01-31T08:11:47.825Z,80.70
2023-01-31T08:14:14.742Z,80.80
2023-01-31T08:16:41.611Z,80.80
2023-01-31T08:19:08.566Z,80.90
2023-01-31T08:21:35.423Z,81.10
2023-01-31T08:24:02.365Z,81.30
2023-01-31T08:26:29.433Z,81.60
2023-01-31T08:28:57.065Z,81.70
2023-01-31T08:31:26.553Z,82.00
2023-01-31T08:33:56.005Z,82.70
2023-01-31T08:36:35.704Z,82.70
2023-01-31T08:39:03.765Z,81.00
2023-01-31T08:41:35.625Z,82.20
2023-01-31T08:44:04.815Z,80.80
2023-01-31T08:46:35.748Z,80.20
2023-01-31T08:49:06.161Z,79.50
2023-01-31T08:51:33.050Z,79.60
2023-01-31T08:53:59.894Z,78.90
2023-01-31T08:56:27.858Z,77.60
2023-01-31T08:58:55.148Z,76.90
2023-01-31T09:01:23.158Z,76.00
2023-01-31T09:03:50.695Z,75.30
2023-01-31T09:06:21.617Z,74.50
2023-01-31T09:08:48.572Z,73.20
2023-01-31T09:11:19.476Z,75.50
2023-01-31T09:13:51.382Z,73.10
2023-01-31T09:16:22.294Z,72.40
2023-01-31T09:18:49.221Z,71.70
2023-01-31T09:24:04.516Z,71.80
2023-01-31T09:26:34.553Z,71.70
2023-01-31T09:29:01.825Z,70.50
2023-01-31T09:31:29.837Z,69.70
2023-01-31T09:33:59.545Z,68.00
2023-01-31T09:36:28.550Z,67.50
2023-01-31T09:38:57.335Z,68.00
2023-01-31T09:41:44.746Z,68.70
2023-01-31T09:44:11.501Z,67.90
2023-01-31T09:46:47.651Z,68.90
2023-01-31T09:49:31.959Z,68.40
2023-01-31T09:52:02.802Z,68.00
2023-01-31T09:54:34.856Z,71.20
2023-01-31T09:57:19.359Z,71.00
2023-01-31T10:00:16.156Z,71.30
2023-01-31T10:03:15.071Z,73.70
2023-01-31T10:05:57.149Z,72.00
2023-01-31T10:09:13.338Z,73.20
2023-01-31T10:12:28.092Z,73.20
2023-01-31T10:15:19.364Z,75.00
2023-01-31T10:17:57.682Z,78.60
2023-01-31T10:20:40.890Z,79.00
2023-01-31T10:23:16.527Z,77.00
2023-01-31T10:26:20.919Z,78.20
2023-01-31T10:29:29.483Z,74.60
2023-01-31T10:32:00.657Z,72.10
2023-01-31T10:34:40.415Z,72.20
2023-01-31T10:37:28.941Z,72.40
2023-01-31T10:40:12.847Z,70.70
2023-01-31T10:42:42.649Z,74.20
2023-01-31T10:45:09.474Z,75.30
2023-01-31T10:47:54.241Z,75.70
2023-01-31T10:50:44.222Z,74.80
2023-01-31T10:54:13.088Z,73.30
2023-01-31T10:56:47.189Z,72.70
2023-01-31T10:59:23.843Z,76.00
2023-01-31T11:01:51.406Z,77.00
2023-01-31T11:04:35.496Z,77.00
2023-01-31T11:07:03.616Z,75.30
2023-01-31T11:09:39.306Z,77.60
2023-01-31T11:12:08.319Z,76.70
2023-01-31T11:14:36.718Z,78.10
2023-01-31T11:17:14.632Z,78.40
2023-01-31T11:19:54.079Z,77.40
2023-01-31T11:22:30.315Z,77.80
2023-01-31T11:25:01.483Z,76.80
2023-01-31T11:27:39.938Z,78.70
2023-01-31T11:30:23.451Z,78.30
2023-01-31T11:41:56.778Z,78.60
2023-01-31T11:44:24.540Z,78.40
2023-01-31T11:47:03.634Z,78.90
2023-01-31T11:49:43.661Z,78.90
2023-01-31T11:52:20.259Z,77.30
2023-01-31T11:54:57.931Z,77.70
2023-01-31T11:57:37.129Z,78.80
2023-01-31T12:00:31.900Z,77.40
2023-01-31T12:03:09.507Z,76.60
2023-01-31T12:05:49.735Z,78.40
2023-01-31T12:08:41.780Z,77.60
2023-01-31T12:11:27.768Z,75.00
2023-01-31T12:14:17.816Z,76.80
2023-01-31T12:16:47.707Z,78.70
2023-01-31T12:19:21.056Z,80.10
2023-01-31T12:22:14.320Z,80.10
2023-01-31T12:24:59.241Z,77.60
2023-01-31T12:27:56.568Z,79.10
2023-01-31T12:31:04.620Z,79.30
2023-01-31T12:34:30.007Z,75.10
2023-01-31T12:37:40.343Z,80.10
2023-01-31T12:41:00.624Z,75.80
2023-01-31T12:44:18.860Z,75.40
2023-01-31T12:47:12.083Z,74.40
2023-01-31T12:50:22.556Z,81.00
2023-01-31T12:53:42.896Z,77.90
2023-01-31T12:56:34.297Z,75.90
2023-01-31T12:59:15.816Z,79.10
2023-01-31T13:02:54.634Z,77.40
2023-01-31T13:08:41.253Z,77.70
2023-01-31T13:11:20.418Z,79.00
2023-01-31T13:14:03.508Z,78.90
2023-01-31T13:16:40.104Z,77.20
2023-01-31T13:19:18.116Z,81.00
2023-01-31T13:21:50.870Z,80.30
2023-01-31T13:24:32.968Z,80.30
2023-01-31T13:27:15.416Z,79.30
2023-01-31T13:30:02.398Z,79.00
2023-01-31T13:32:39.068Z,75.60
2023-01-31T13:35:23.841Z,77.40
2023-01-31T13:41:03.600Z,78.70
2023-01-31T13:43:30.446Z,79.20
2023-01-31T13:46:09.640Z,79.00
2023-01-31T13:49:01.613Z,76.20
2023-01-31T13:51:41.163Z,78.00
2023-01-31T13:54:20.761Z,76.70
2023-01-31T13:56:57.370Z,75.90
2023-01-31T13:59:35.856Z,75.50
2023-01-31T14:02:08.182Z,77.00
2023-01-31T14:04:40.113Z,77.60
2023-01-31T14:07:07.209Z,77.50
2023-01-31T14:09:44.401Z,77.70
2023-01-31T14:12:17.167Z,77.50
2023-01-31T14:14:55.938Z,78.00
2023-01-31T14:17:29.131Z,74.80
2023-01-31T14:19:55.929Z,76.40
2023-01-31T14:22:24.944Z,78.30
2023-01-31T14:24:56.384Z,78.40
2023-01-31T14:27:43.993Z,78.40
2023-01-31T14:30:22.885Z,75.80
2023-01-31T14:33:06.610Z,78.20
2023-01-31T14:36:05.958Z,75.10
2023-01-31T14:39:35.324Z,74.30
2023-01-31T14:42:19.264Z,73.20
2023-01-31T14:45:23.532Z,78.60
2023-01-31T14:48:21.328Z,75.90
2023-01-31T14:51:10.720Z,77.00
2023-01-31T14:53:58.946Z,75.70
2023-01-31T14:56:55.136Z,76.10
2023-01-31T15:00:01.577Z,76.90
2023-01-31T15:02:31.809Z,77.10
2023-01-31T15:05:09.439Z,78.00
2023-01-31T15:07:36.687Z,77.50
2023-01-31T15:10:04.960Z,78.80
2023-01-31T15:13:00.736Z,78.70
2023-01-31T15:15:39.762Z,74.60
2023-01-31T15:18:24.228Z,76.20
2023-01-31T15:20:58.701Z,75.90
2023-01-31T15:23:29.857Z,78.40
2023-01-31T15:25:59.755Z,78.40
2023-01-31T15:28:33.990Z,78.30
2023-01-31T15:31:15.203Z,78.60
2023-01-31T15:33:47.956Z,78.10
2023-01-31T15:36:26.565Z,78.00
2023-01-31T15:38:55.516Z,78.10
2023-01-31T15:41:41.461Z,78.50
2023-01-31T15:44:23.102Z,78.40
2023-01-31T15:46:53.492Z,77.10
2023-01-31T15:49:40.798Z,78.10
2023-01-31T15:52:17.214Z,77.50
2023-01-31T15:55:02.263Z,77.50
2023-01-31T15:58:02.057Z,75.40
2023-01-31T16:00:38.127Z,76.00
2023-01-31T16:03:08.338Z,78.10
2023-01-31T16:05:40.293Z,78.30
2023-01-31T16:08:29.220Z,78.20
2023-01-31T16:11:11.517Z,75.00
2023-01-31T16:13:41.120Z,75.20
2023-01-31T16:16:10.657Z,78.40
2023-01-31T16:18:38.616Z,78.20
2023-01-31T16:21:28.615Z,78.40
2023-01-31T16:24:17.911Z,75.00
2023-01-31T16:27:13.627Z,73.70
2023-01-31T16:29:46.545Z,75.10
2023-01-31T16:32:33.703Z,77.80
2023-01-31T16:35:22.572Z,75.20
2023-01-31T16:38:16.429Z,76.90
2023-01-31T16:40:53.964Z,75.10
2023-01-31T16:43:30.170Z,76.10
2023-01-31T16:46:08.261Z,77.20
2023-01-31T16:48:40.414Z,78.30
2023-01-31T16:51:22.719Z,77.30
2023-01-31T16:54:12.406Z,74.10
2023-01-31T16:56:39.892Z,74.70
2023-01-31T16:59:37.619Z,78.60
2023-01-31T17:02:13.287Z,73.80
2023-01-31T17:04:41.975Z,78.70
2023-01-31T17:07:30.474Z,78.40
2023-01-31T17:10:02.169Z,76.30
2023-01-31T17:12:32.558Z,78.20
2023-01-31T17:15:03.072Z,78.40
2023-01-31T17:17:34.996Z,78.40
2023-01-31T17:20:01.915Z,78.00
2023-01-31T17:22:28.844Z,78.30
2023-01-31T17:24:55.627Z,78.40
2023-01-31T17:27:23.109Z,78.40
2023-01-31T17:29:50.133Z,78.40
2023-01-31T17:32:20.655Z,78.40
2023-01-31T17:34:50.837Z,78.10
2023-01-31T17:37:26.739Z,78.20
2023-01-31T17:39:58.307Z,78.40
2023-01-31T17:42:25.186Z,78.50
2023-01-31T17:44:52.134Z,78.50
2023-01-31T17:47:19.009Z,78.40
2023-01-31T17:49:45.825Z,78.50
2023-01-31T17:52:12.766Z,78.40
2023-01-31T17:54:39.747Z,78.80
2023-01-31T17:57:06.647Z,78.30
2023-01-31T17:59:34.487Z,78.40
2023-01-31T18:02:02.412Z,78.40
2023-01-31T18:04:29.545Z,78.40
2023-01-31T18:06:56.793Z,78.40
2023-01-31T18:09:25.671Z,78.30
2023-01-31T18:11:52.628Z,78.30
2023-01-31T18:14:19.517Z,78.30
2023-01-31T18:16:46.412Z,78.30
2023-01-31T18:19:14.495Z,78.30
2023-01-31T18:21:50.076Z,78.30
2023-01-31T18:24:21.516Z,78.30
2023-01-31T18:26:49.238Z,78.40
2023-01-31T18:29:19.850Z,78.50
2023-01-31T18:31:51.448Z,78.50
2023-01-31T18:34:18.476Z,78.30
2023-01-31T18:36:45.530Z,78.40
2023-01-31T18:39:12.533Z,78.50
2023-01-31T18:41:39.342Z,78.50
2023-01-31T18:44:06.255Z,78.50
2023-01-31T18:46:33.203Z,78.40
2023-01-31T18:49:00.132Z,79.00
2023-01-31T18:51:27.040Z,78.50
2023-01-31T18:53:53.950Z,78.60
2023-01-31T18:56:22.194Z,78.60
2023-01-31T18:58:49.847Z,78.40
2023-01-31T19:01:21.268Z,78.60
2023-01-31T19:03:52.953Z,78.30
2023-01-31T19:06:23.619Z,78.40
2023-01-31T19:08:52.854Z,78.30
2023-01-31T19:11:23.380Z,78.40
2023-01-31T19:13:50.908Z,78.40
2023-01-31T19:16:24.709Z,78.70
2023-01-31T19:18:52.415Z,77.80
2023-01-31T19:21:20.298Z,78.40
2023-01-31T19:23:48.723Z,78.40
2023-01-31T19:26:17.986Z,78.40
2023-01-31T19:28:46.329Z,78.30
2023-01-31T19:31:21.473Z,78.20
2023-01-31T19:33:51.510Z,78.10
2023-01-31T19:36:22.443Z,78.40
2023-01-31T19:38:49.768Z,78.20
2023-01-31T19:41:20.967Z,78.30
2023-01-31T19:43:58.377Z,78.00
2023-01-31T19:46:29.928Z,76.70
2023-01-31T19:49:00.438Z,78.10
2023-01-31T19:51:27.711Z,78.10
2023-01-31T19:54:03.976Z,78.20
2023-01-31T19:56:32.458Z,78.00
2023-01-31T19:59:00.338Z,78.00
2023-01-31T20:01:27.455Z,78.30
2023-01-31T20:03:54.610Z,78.40
2023-01-31T20:06:25.692Z,78.20
2023-01-31T20:08:59.351Z,78.20
2023-01-31T20:11:29.353Z,76.70
2023-01-31T20:13:58.014Z,77.50
2023-01-31T20:16:25.202Z,78.10
2023-01-31T20:18:54.761Z,78.40
2023-01-31T20:21:22.858Z,78.30
2023-01-31T20:23:50.152Z,78.30
2023-01-31T20:26:19.318Z,78.40
2023-01-31T20:28:46.451Z,78.00
2023-01-31T20:31:15.646Z,78.10
2023-01-31T20:33:43.419Z,78.10
2023-01-31T20:36:11.118Z,78.10
2023-01-31T20:38:39.468Z,77.70
2023-01-31T20:41:08.598Z,78.00
2023-01-31T20:43:36.899Z,78.00
2023-01-31T20:46:06.431Z,78.20
2023-01-31T20:48:33.698Z,78.30
2023-01-31T20:51:01.151Z,78.40
2023-01-31T20:53:28.810Z,78.30
2023-01-31T20:56:09.774Z,78.20
2023-01-31T20:58:40.492Z,77.50
2023-01-31T21:01:09.032Z,77.90
2023-01-31T21:03:36.396Z,78.10
2023-01-31T21:06:05.347Z,78.20
2023-01-31T21:08:35.301Z,78.20
2023-01-31T21:11:07.456Z,78.20
2023-01-31T21:13:34.843Z,77.60
2023-01-31T21:16:05.660Z,78.40
2023-01-31T21:18:35.054Z,78.20
2023-01-31T21:21:11.826Z,77.10
2023-01-31T21:23:40.980Z,77.40
2023-01-31T21:26:10.801Z,78.00
2023-01-31T21:28:40.000Z,78.10
2023-01-31T21:31:12.749Z,78.20
2023-01-31T21:33:39.745Z,77.80
2023-01-31T21:36:11.971Z,78.10
2023-01-31T21:38:40.465Z,77.60
2023-01-31T21:41:27.085Z,77.80
2023-01-31T21:43:55.037Z,78.00
2023-01-31T21:46:22.528Z,78.10
2023-01-31T21:48:49.649Z,78.10
2023-01-31T21:51:19.803Z,78.30
2023-01-31T21:53:46.812Z,78.10
2023-01-31T21:56:21.172Z,78.40
2023-01-31T21:58:48.362Z,77.50
2023-01-31T22:01:22.479Z,78.70
2023-01-31T22:03:51.820Z,78.00
2023-01-31T22:06:31.243Z,78.50
2023-01-31T22:09:01.162Z,78.40
2023-01-31T22:11:32.919Z,78.50
2023-01-31T22:14:02.949Z,78.70
2023-01-31T22:16:30.096Z,78.80
2023-01-31T22:19:01.097Z,78.80
2023-01-31T22:21:32.049Z,78.60
2023-01-31T22:24:01.851Z,78.50
2023-01-31T22:26:32.728Z,78.70
2023-01-31T22:29:03.432Z,78.30
2023-01-31T22:31:31.528Z,78.40
2023-01-31T22:34:00.229Z,78.70
2023-01-31T22:36:27.826Z,78.70
2023-01-31T22:38:55.120Z,78.60
2023-01-31T22:41:22.790Z,78.70
2023-01-31T22:43:51.990Z,78.70
2023-01-31T22:46:23.339Z,78.80
2023-01-31T22:48:51.004Z,79.00
2023-01-31T22:51:22.192Z,79.10
2023-01-31T22:53:49.496Z,79.00
2023-01-31T22:56:32.389Z,79.40
2023-01-31T22:59:03.343Z,77.80
2023-01-31T23:01:36.127Z,79.30
2023-01-31T23:04:06.828Z,79.20
2023-01-31T23:06:34.465Z,79.50
2023-01-31T23:09:01.579Z,79.60
2023-01-31T23:11:28.509Z,79.60
2023-01-31T23:13:57.442Z,79.60
2023-01-31T23:16:46.101Z,79.40
2023-01-31T23:19:13.833Z,79.50
2023-01-31T23:21:44.657Z,79.60
2023-01-31T23:24:15.119Z,79.60
2023-01-31T23:26:42.449Z,79.10
2023-01-31T23:29:09.729Z,79.50
2023-01-31T23:31:37.591Z,79.50
2023-01-31T23:37:19.109Z,79.60
2023-01-31T23:39:50.407Z,79.50
2023-01-31T23:42:17.410Z,79.60
2023-01-31T23:44:44.589Z,79.60
2023-01-31T23:47:11.632Z,79.50
2023-01-31T23:49:38.503Z,79.50
2023-01-31T23:52:06.674Z,79.30
2023-01-31T23:54:33.925Z,79.40
2023-01-31T23:57:00.782Z,79.30
2023-01-31T23:59:29.303Z,79.20
